createdAt,value
2018-09-24T00:01:52.736Z,2.00
2018-09-24T00:04:20.319Z,1.47
2018-09-24T00:06:48.010Z,2.03
2018-09-24T00:09:15.631Z,1.70
2018-09-24T00:11:43.272Z,1.87
2018-09-24T00:14:10.938Z,2.13
2018-09-24T00:16:38.598Z,1.65
2018-09-24T00:19:06.378Z,2.92
2018-09-24T00:21:34.020Z,3.30
2018-09-24T00:24:01.654Z,3.33
2018-09-24T00:26:29.275Z,3.93
2018-09-24T00:28:56.930Z,4.05
2018-09-24T00:31:24.672Z,4.70
2018-09-24T00:33:52.302Z,4.70
2018-09-24T00:36:20.328Z,4.33
2018-09-24T00:38:47.985Z,5.00
2018-09-24T00:41:15.805Z,4.80
2018-09-24T00:43:43.463Z,5.78
2018-09-24T00:46:11.189Z,5.70
2018-09-24T00:48:39.007Z,5.40
2018-09-24T00:51:06.711Z,5.05
2018-09-24T00:53:34.343Z,6.47
2018-09-24T00:56:02.032Z,5.33
2018-09-24T00:58:30.498Z,5.80
2018-09-24T01:00:58.162Z,5.25
2018-09-24T01:03:25.751Z,5.30
2018-09-24T01:05:58.646Z,7.10
2018-09-24T01:08:26.792Z,6.47
2018-09-24T01:10:54.411Z,6.23
2018-09-24T01:13:22.113Z,5.85
2018-09-24T01:15:49.755Z,7.53
2018-09-24T01:18:17.448Z,6.00
2018-09-24T01:20:45.059Z,5.77
2018-09-24T01:23:12.721Z,6.17
2018-09-24T01:25:40.401Z,5.33
2018-09-24T01:28:08.087Z,4.10
2018-09-24T01:30:35.988Z,4.07
2018-09-24T01:33:03.750Z,3.70
2018-09-24T01:35:31.366Z,4.10
2018-09-24T01:37:59.031Z,3.15
2018-09-24T01:40:26.640Z,2.57
2018-09-24T01:42:54.296Z,3.80
2018-09-24T01:45:22.348Z,4.17
2018-09-24T01:47:49.964Z,2.92
2018-09-24T01:50:17.575Z,3.10
2018-09-24T01:52:45.184Z,3.10
2018-09-24T01:55:12.784Z,4.80
2018-09-24T01:57:40.426Z,2.63
2018-09-24T02:00:08.194Z,2.77
2018-09-24T02:02:35.830Z,2.70
2018-09-24T02:05:03.500Z,2.40
2018-09-24T02:07:31.309Z,3.23
2018-09-24T02:09:58.926Z,1.77
2018-09-24T02:12:26.566Z,2.05
2018-09-24T02:14:54.181Z,2.67
2018-09-24T02:17:22.733Z,2.20
2018-09-24T02:19:51.066Z,1.98
2018-09-24T02:22:27.045Z,2.23
2018-09-24T02:24:55.809Z,2.37
2018-09-24T02:27:23.493Z,1.80
2018-09-24T02:29:51.349Z,1.85
2018-09-24T02:32:19.067Z,1.82
2018-09-24T02:34:47.779Z,2.20
2018-09-24T02:37:16.380Z,2.37
2018-09-24T02:39:44.098Z,2.17
2018-09-24T02:42:11.738Z,2.90
2018-09-24T02:44:39.375Z,2.30
2018-09-24T02:47:07.078Z,2.20
2018-09-24T02:49:34.781Z,2.70
2018-09-24T02:52:03.834Z,2.50
2018-09-24T02:54:32.870Z,2.40
2018-09-24T02:57:00.563Z,2.13
2018-09-24T02:59:28.218Z,2.33
2018-09-24T03:01:56.067Z,2.52
2018-09-24T03:04:23.755Z,2.02
2018-09-24T03:06:51.433Z,2.50
2018-09-24T03:09:19.089Z,1.83
2018-09-24T03:11:47.103Z,1.83
2018-09-24T03:14:22.916Z,2.00
2018-09-24T03:16:51.398Z,2.27
2018-09-24T03:19:19.105Z,2.53
2018-09-24T03:21:46.836Z,2.63
2018-09-24T03:24:14.583Z,3.22
2018-09-24T03:26:42.804Z,2.10
2018-09-24T03:29:23.368Z,2.40
2018-09-24T03:31:51.482Z,2.93
2018-09-24T03:34:19.536Z,3.90
2018-09-24T03:36:48.026Z,2.80
2018-09-24T03:39:15.772Z,2.60
2018-09-24T03:41:43.776Z,2.20
2018-09-24T03:44:11.429Z,2.27
2018-09-24T03:46:39.717Z,2.10
2018-09-24T03:49:07.631Z,2.07
2018-09-24T03:51:35.265Z,2.60
2018-09-24T03:54:02.942Z,2.08
2018-09-24T03:56:30.529Z,1.32
2018-09-24T03:58:58.191Z,1.37
2018-09-24T04:01:25.979Z,1.80
2018-09-24T04:03:59.490Z,2.07
2018-09-24T04:06:33.100Z,1.30
2018-09-24T04:09:06.602Z,1.70
2018-09-24T04:11:39.988Z,1.97
2018-09-24T04:14:13.490Z,1.77
2018-09-24T04:16:46.888Z,1.73
2018-09-24T04:19:20.396Z,1.90
2018-09-24T04:21:53.695Z,2.60
2018-09-24T04:24:27.051Z,1.80
2018-09-24T04:27:00.353Z,2.23
2018-09-24T04:29:33.930Z,1.57
2018-09-24T04:32:07.500Z,1.50
2018-09-24T04:34:40.813Z,1.60
2018-09-24T04:37:14.105Z,1.73
2018-09-24T04:39:47.625Z,2.33
2018-09-24T04:42:21.066Z,1.40
2018-09-24T04:44:54.427Z,1.47
2018-09-24T04:47:27.932Z,1.20
2018-09-24T04:50:01.231Z,1.30
2018-09-24T04:52:34.501Z,2.13
2018-09-24T04:55:09.205Z,1.60
2018-09-24T04:57:42.671Z,1.63
2018-09-24T05:00:16.222Z,1.00
2018-09-24T05:02:49.820Z,1.57
2018-09-24T05:05:23.211Z,2.07
2018-09-24T05:07:56.576Z,1.87
2018-09-24T05:10:30.045Z,2.20
2018-09-24T05:13:03.437Z,1.33
2018-09-24T05:15:36.678Z,1.90
2018-09-24T05:18:10.328Z,1.73
2018-09-24T05:20:43.766Z,1.27
2018-09-24T05:23:17.239Z,1.70
2018-09-24T05:25:50.789Z,1.57
2018-09-24T05:28:24.288Z,1.63
2018-09-24T05:30:57.829Z,1.30
2018-09-24T05:33:31.355Z,1.90
2018-09-24T05:36:04.865Z,1.67
2018-09-24T05:38:38.216Z,1.43
2018-09-24T05:41:11.466Z,2.23
2018-09-24T05:43:44.800Z,1.30
2018-09-24T05:46:18.108Z,1.53
2018-09-24T05:48:51.638Z,2.07
2018-09-24T05:51:24.897Z,1.77
2018-09-24T05:53:58.276Z,1.33
2018-09-24T05:56:31.615Z,1.93
2018-09-24T05:59:05.150Z,1.20
2018-09-24T06:01:38.827Z,1.67
2018-09-24T06:04:12.728Z,1.40
2018-09-24T06:06:46.263Z,1.93
2018-09-24T06:09:19.595Z,1.83
2018-09-24T06:11:52.804Z,1.00
2018-09-24T06:14:26.311Z,1.73
2018-09-24T06:16:59.640Z,1.43
2018-09-24T06:19:34.061Z,1.40
2018-09-24T06:22:07.628Z,1.40
2018-09-24T06:24:41.242Z,1.90
2018-09-24T06:27:14.697Z,2.10
2018-09-24T06:29:47.992Z,0.87
2018-09-24T06:32:21.302Z,1.60
2018-09-24T06:34:54.819Z,1.00
2018-09-24T06:37:28.290Z,1.17
2018-09-24T06:40:01.794Z,1.17
2018-09-24T06:42:35.109Z,0.90
2018-09-24T06:45:08.853Z,1.00
2018-09-24T06:47:42.353Z,1.20
2018-09-24T06:50:15.839Z,1.00
2018-09-24T06:52:49.349Z,1.00
2018-09-24T06:55:22.780Z,0.97
2018-09-24T06:57:55.989Z,1.20
2018-09-24T07:00:29.350Z,1.00
2018-09-24T07:03:02.658Z,1.20
2018-09-24T07:05:36.282Z,0.90
2018-09-24T07:08:09.510Z,0.70
2018-09-24T07:10:42.863Z,1.30
2018-09-24T07:13:16.412Z,1.00
2018-09-24T07:15:49.940Z,0.90
2018-09-24T07:18:23.470Z,1.33
2018-09-24T07:20:56.761Z,1.03
2018-09-24T07:23:30.019Z,1.10
2018-09-24T07:26:03.398Z,1.20
2018-09-24T07:28:36.947Z,0.60
2018-09-24T07:31:10.233Z,1.07
2018-09-24T07:33:43.773Z,1.63
2018-09-24T07:36:17.229Z,1.00
2018-09-24T07:38:50.725Z,1.00
2018-09-24T07:41:24.103Z,1.10
2018-09-24T07:43:57.411Z,1.00
2018-09-24T07:46:30.949Z,1.40
2018-09-24T07:49:04.245Z,1.33
2018-09-24T07:51:37.629Z,1.10
2018-09-24T07:54:10.877Z,1.10
2018-09-24T07:56:44.233Z,0.93
2018-09-24T07:59:17.807Z,1.10
2018-09-24T08:01:51.277Z,1.47
2018-09-24T08:04:24.869Z,1.20
2018-09-24T08:06:58.223Z,1.37
2018-09-24T08:09:31.777Z,1.77
2018-09-24T08:12:05.316Z,1.30
2018-09-24T08:14:38.677Z,0.93
2018-09-24T08:17:12.203Z,0.90
2018-09-24T08:19:45.598Z,1.73
2018-09-24T08:22:19.091Z,1.20
2018-09-24T08:24:52.616Z,1.20
2018-09-24T08:27:26.092Z,0.97
2018-09-24T08:29:59.621Z,1.00
2018-09-24T08:32:33.266Z,1.20
2018-09-24T08:35:06.669Z,1.50
2018-09-24T08:37:40.187Z,0.80
2018-09-24T08:40:13.686Z,1.07
2018-09-24T08:42:47.267Z,0.80
2018-09-24T08:45:20.538Z,1.57
2018-09-24T08:47:53.858Z,0.90
2018-09-24T08:50:27.172Z,1.33
2018-09-24T08:53:00.730Z,1.03
2018-09-24T08:55:34.103Z,0.87
2018-09-24T08:58:07.655Z,1.07
2018-09-24T09:00:40.974Z,1.20
2018-09-24T09:03:14.492Z,1.17
2018-09-24T09:05:48.026Z,1.00
2018-09-24T09:08:21.364Z,1.37
2018-09-24T09:10:54.584Z,1.10
2018-09-24T09:13:27.920Z,0.93
2018-09-24T09:16:01.214Z,1.30
2018-09-24T09:18:34.820Z,1.40
2018-09-24T09:21:08.349Z,0.90
2018-09-24T09:23:41.819Z,1.20
2018-09-24T09:26:15.262Z,0.90
2018-09-24T09:28:48.755Z,1.80
2018-09-24T09:31:22.158Z,2.80
2018-09-24T09:33:55.701Z,0.70
2018-09-24T09:36:29.287Z,0.90
2018-09-24T09:39:02.669Z,1.53
2018-09-24T09:41:36.133Z,1.10
2018-09-24T09:44:09.615Z,1.23
2018-09-24T09:46:43.126Z,1.00
2018-09-24T09:49:16.664Z,0.83
2018-09-24T09:51:50.143Z,1.00
2018-09-24T09:54:23.639Z,1.17
2018-09-24T09:56:57.064Z,0.90
2018-09-24T09:59:30.629Z,1.13
2018-09-24T10:02:03.998Z,1.00
2018-09-24T10:04:37.539Z,1.53
2018-09-24T10:07:10.976Z,1.00
2018-09-24T10:09:44.370Z,0.93
2018-09-24T10:12:17.592Z,0.90
2018-09-24T10:14:51.077Z,1.10
2018-09-24T10:17:24.592Z,0.87
2018-09-24T10:19:58.075Z,1.00
2018-09-24T10:22:31.428Z,1.00
2018-09-24T10:25:04.731Z,0.80
2018-09-24T10:27:38.086Z,1.40
2018-09-24T10:30:11.622Z,2.03
2018-09-24T10:32:45.220Z,1.20
2018-09-24T10:35:18.802Z,0.80
2018-09-24T10:37:52.345Z,1.00
2018-09-24T10:40:25.850Z,1.03
2018-09-24T10:42:59.256Z,1.00
2018-09-24T10:45:32.916Z,0.70
2018-09-24T10:48:06.957Z,1.13
2018-09-24T10:50:40.369Z,0.93
2018-09-24T10:53:13.871Z,1.30
2018-09-24T10:55:47.629Z,1.17
2018-09-24T10:58:21.724Z,1.13
2018-09-24T11:00:55.371Z,0.90
2018-09-24T11:03:28.753Z,0.90
2018-09-24T11:06:02.548Z,0.90
2018-09-24T11:08:35.995Z,0.87
2018-09-24T11:11:09.463Z,1.20
2018-09-24T11:13:42.974Z,0.70
2018-09-24T11:16:16.617Z,1.80
2018-09-24T11:18:49.995Z,1.43
2018-09-24T11:21:23.707Z,1.17
2018-09-24T11:23:57.200Z,0.73
2018-09-24T11:29:04.261Z,0.90
2018-09-24T11:31:37.558Z,1.63
2018-09-24T11:34:10.958Z,0.80
2018-09-24T11:36:44.390Z,1.00
2018-09-24T11:39:17.767Z,1.77
2018-09-24T11:41:51.061Z,0.90
2018-09-24T11:44:24.651Z,0.83
2018-09-24T11:46:58.367Z,0.87
2018-09-24T11:49:31.859Z,0.93
2018-09-24T11:52:05.268Z,0.80
2018-09-24T11:54:38.712Z,1.43
2018-09-24T11:57:12.366Z,1.10
2018-09-24T11:59:45.754Z,0.77
2018-09-24T12:02:19.351Z,1.07
2018-09-24T12:04:52.772Z,1.00
2018-09-24T12:07:26.341Z,1.33
2018-09-24T12:09:59.845Z,1.40
2018-09-24T12:12:33.478Z,1.63
2018-09-24T12:15:07.081Z,1.07
2018-09-24T12:17:40.596Z,1.17
2018-09-24T12:20:14.171Z,1.47
2018-09-24T12:22:47.526Z,1.20
2018-09-24T12:25:20.856Z,0.90
2018-09-24T12:27:54.143Z,1.10
2018-09-24T12:30:27.686Z,0.80
2018-09-24T12:33:01.061Z,1.27
2018-09-24T12:35:34.418Z,1.10
2018-09-24T12:38:07.844Z,1.30
2018-09-24T12:40:41.238Z,0.90
2018-09-24T12:43:14.909Z,1.30
2018-09-24T12:45:48.328Z,1.50
2018-09-24T12:48:21.663Z,1.30
2018-09-24T12:50:55.020Z,1.23
2018-09-24T12:53:28.536Z,1.60
2018-09-24T12:56:02.835Z,1.57
2018-09-24T12:58:36.543Z,1.90
2018-09-24T13:01:10.151Z,1.33
2018-09-24T13:03:43.790Z,1.80
2018-09-24T13:06:17.118Z,0.90
2018-09-24T13:08:50.680Z,1.30
2018-09-24T13:11:23.933Z,1.30
2018-09-24T13:13:57.462Z,0.90
2018-09-24T13:18:01.595Z,1.20
2018-09-24T13:20:34.941Z,1.03
2018-09-24T13:23:08.257Z,0.93
2018-09-24T13:25:41.772Z,1.07
2018-09-24T13:28:15.164Z,1.03
2018-09-24T13:30:48.720Z,0.80
2018-09-24T13:33:22.057Z,0.80
2018-09-24T13:35:55.434Z,0.87
2018-09-24T13:38:28.728Z,0.90
2018-09-24T13:41:03.159Z,0.80
2018-09-24T13:43:36.642Z,0.90
2018-09-24T13:46:12.231Z,0.87
2018-09-24T13:48:45.704Z,0.93
2018-09-24T13:51:19.201Z,1.03
2018-09-24T13:53:52.524Z,0.83
2018-09-24T13:56:26.108Z,0.80
2018-09-24T13:58:59.479Z,0.83
2018-09-24T14:01:32.774Z,0.90
2018-09-24T14:04:06.309Z,0.80
2018-09-24T14:06:39.663Z,1.10
2018-09-24T14:09:14.196Z,0.80
2018-09-24T14:11:47.482Z,0.87
2018-09-24T14:14:21.344Z,0.77
2018-09-24T14:16:54.703Z,0.80
2018-09-24T14:19:28.512Z,0.70
2018-09-24T14:22:02.045Z,1.63
2018-09-24T14:24:36.177Z,1.10
2018-09-24T14:27:09.800Z,1.30
2018-09-24T14:29:43.826Z,0.90
2018-09-24T14:32:17.288Z,1.20
2018-09-24T14:34:50.605Z,1.03
2018-09-24T14:37:23.978Z,1.13
2018-09-24T14:39:59.041Z,1.33
2018-09-24T14:42:32.534Z,1.07
2018-09-24T14:45:05.841Z,1.40
2018-09-24T14:47:39.404Z,1.03
2018-09-24T14:50:12.842Z,0.87
2018-09-24T14:52:46.292Z,0.87
2018-09-24T14:55:20.292Z,1.43
2018-09-24T14:57:53.633Z,0.80
2018-09-24T15:00:27.187Z,1.10
2018-09-24T15:03:00.422Z,1.50
2018-09-24T15:05:33.717Z,0.90
2018-09-24T15:08:07.154Z,1.20
2018-09-24T15:10:41.021Z,0.83
2018-09-24T15:13:14.777Z,0.87
2018-09-24T15:15:48.382Z,1.00
2018-09-24T15:18:21.950Z,0.77
2018-09-24T15:20:55.388Z,0.70
2018-09-24T15:23:28.644Z,0.80
2018-09-24T15:26:02.434Z,0.70
2018-09-24T15:28:35.982Z,0.70
2018-09-24T15:31:09.489Z,0.87
2018-09-24T15:33:43.157Z,0.77
2018-09-24T15:36:16.741Z,0.70
2018-09-24T15:38:50.104Z,1.10
2018-09-24T15:41:23.702Z,0.70
2018-09-24T15:43:57.304Z,1.10
2018-09-24T15:46:30.791Z,0.80
2018-09-24T15:49:04.308Z,0.73
2018-09-24T15:51:37.967Z,1.17
2018-09-24T15:54:11.789Z,0.90
2018-09-24T15:56:45.478Z,1.10
2018-09-24T15:59:18.996Z,0.70
2018-09-24T16:01:52.466Z,0.60
2018-09-24T16:04:26.456Z,0.90
2018-09-24T16:07:00.158Z,0.70
2018-09-24T16:09:33.586Z,0.90
2018-09-24T16:12:06.888Z,0.70
2018-09-24T16:14:40.095Z,0.63
2018-09-24T16:17:13.431Z,0.97
2018-09-24T16:19:46.785Z,0.60
2018-09-24T16:22:20.305Z,0.80
2018-09-24T16:24:53.637Z,1.00
2018-09-24T16:27:26.955Z,0.90
2018-09-24T16:30:00.526Z,0.67
2018-09-24T16:32:33.885Z,0.83
2018-09-24T16:35:07.253Z,0.70
2018-09-24T16:37:40.650Z,0.60
2018-09-24T16:40:14.083Z,0.70
2018-09-24T16:42:47.401Z,0.90
2018-09-24T16:45:20.833Z,0.67
2018-09-24T16:47:54.229Z,0.80
2018-09-24T16:50:27.534Z,0.67
2018-09-24T16:53:00.861Z,0.60
2018-09-24T16:55:34.182Z,0.63
2018-09-24T16:58:07.540Z,1.10
2018-09-24T17:00:41.041Z,0.60
2018-09-24T17:03:14.568Z,0.70
2018-09-24T17:05:48.145Z,0.63
2018-09-24T17:08:21.616Z,0.60
2018-09-24T17:10:55.100Z,0.60
2018-09-24T17:13:28.423Z,0.70
2018-09-24T17:16:01.869Z,1.40
2018-09-24T17:18:35.419Z,0.70
2018-09-24T17:21:08.948Z,0.70
2018-09-24T17:23:42.297Z,0.93
2018-09-24T17:26:15.673Z,0.90
2018-09-24T17:28:49.172Z,0.70
2018-09-24T17:31:22.645Z,0.67
2018-09-24T17:33:56.007Z,0.70
2018-09-24T17:36:29.626Z,0.70
2018-09-24T17:39:03.106Z,0.80
2018-09-24T17:41:36.733Z,1.30
2018-09-24T17:44:10.358Z,0.93
2018-09-24T17:46:43.843Z,0.80
2018-09-24T17:49:17.296Z,0.70
2018-09-24T17:51:50.575Z,0.70
2018-09-24T17:54:24.178Z,0.70
2018-09-24T17:56:57.575Z,1.00
2018-09-24T17:59:31.192Z,1.00
2018-09-24T18:02:04.612Z,1.03
2018-09-24T18:04:38.131Z,0.90
2018-09-24T18:07:11.637Z,0.90
2018-09-24T18:09:44.922Z,0.90
2018-09-24T18:12:18.281Z,0.80
2018-09-24T18:14:51.772Z,0.80
2018-09-24T18:17:25.098Z,0.70
2018-09-24T18:19:58.673Z,0.90
2018-09-24T18:22:32.104Z,0.70
2018-09-24T18:25:05.693Z,0.80
2018-09-24T18:27:39.325Z,0.70
2018-09-24T18:30:12.924Z,1.67
2018-09-24T18:32:46.523Z,0.83
2018-09-24T18:35:20.085Z,0.57
2018-09-24T18:37:53.649Z,0.70
2018-09-24T18:40:27.205Z,0.87
2018-09-24T18:43:00.678Z,1.00
2018-09-24T18:45:34.171Z,0.80
2018-09-24T18:48:07.501Z,1.07
2018-09-24T18:50:47.980Z,0.90
2018-09-24T18:53:22.033Z,0.83
2018-09-24T18:55:55.624Z,0.77
2018-09-24T18:58:29.203Z,1.13
2018-09-24T19:02:32.234Z,0.67
2018-09-24T19:05:05.532Z,0.60
2018-09-24T19:07:39.224Z,1.00
2018-09-24T19:10:12.940Z,0.90
2018-09-24T19:12:46.356Z,1.67
2018-09-24T19:15:19.965Z,0.70
2018-09-24T19:17:53.954Z,0.67
2018-09-24T19:20:27.792Z,0.80
2018-09-24T19:23:01.230Z,1.27
2018-09-24T19:25:34.876Z,0.60
2018-09-24T19:28:08.274Z,1.00
2018-09-24T19:30:42.044Z,0.63
2018-09-24T19:33:15.615Z,0.60
2018-09-24T19:35:49.382Z,1.03
2018-09-24T19:38:22.897Z,1.00
2018-09-24T19:40:56.417Z,0.73
2018-09-24T19:43:30.070Z,0.87
2018-09-24T19:46:03.634Z,1.10
2018-09-24T19:48:37.206Z,0.67
2018-09-24T19:51:10.852Z,1.37
2018-09-24T19:53:44.364Z,0.70
2018-09-24T19:56:17.853Z,0.70
2018-09-24T19:58:51.380Z,0.70
2018-09-24T20:01:24.831Z,1.17
2018-09-24T20:03:58.442Z,0.93
2018-09-24T20:06:31.987Z,0.80
2018-09-24T20:09:05.384Z,0.77
2018-09-24T20:11:38.905Z,0.90
2018-09-24T20:14:12.278Z,1.00
2018-09-24T20:16:45.891Z,0.93
2018-09-24T20:19:19.493Z,0.80
2018-09-24T20:21:53.179Z,0.80
2018-09-24T20:24:26.742Z,0.97
2018-09-24T20:27:00.244Z,0.90
2018-09-24T20:29:33.899Z,1.00
2018-09-24T20:32:07.408Z,0.97
2018-09-24T20:34:40.871Z,0.90
2018-09-24T20:37:14.419Z,0.70
2018-09-24T20:39:47.849Z,0.73
2018-09-24T20:42:21.375Z,1.20
2018-09-24T20:44:54.922Z,0.80
2018-09-24T20:47:28.512Z,0.87
2018-09-24T20:50:02.034Z,1.27
2018-09-24T20:52:35.650Z,0.60
2018-09-24T20:55:09.156Z,0.87
2018-09-24T20:57:42.569Z,0.90
2018-09-24T21:00:16.169Z,0.73
2018-09-24T21:02:49.612Z,0.90
2018-09-24T21:05:23.288Z,0.60
2018-09-24T21:07:56.661Z,0.93
2018-09-24T21:10:30.231Z,0.80
2018-09-24T21:13:03.855Z,1.00
2018-09-24T21:15:37.258Z,0.70
2018-09-24T21:18:10.781Z,0.90
2018-09-24T21:20:44.217Z,0.90
2018-09-24T21:23:17.727Z,0.93
2018-09-24T21:25:51.084Z,1.13
2018-09-24T21:28:25.617Z,0.97
2018-09-24T21:30:59.134Z,0.87
2018-09-24T21:33:32.593Z,0.90
2018-09-24T21:36:06.090Z,0.70
2018-09-24T21:38:39.370Z,1.00
2018-09-24T21:41:12.582Z,0.80
2018-09-24T21:43:46.116Z,1.10
2018-09-24T21:46:19.678Z,1.33
2018-09-24T21:48:53.040Z,0.83
2018-09-24T21:51:26.301Z,0.80
2018-09-24T21:53:59.854Z,1.30
2018-09-24T21:56:33.228Z,0.83
2018-09-24T21:59:06.557Z,1.00
2018-09-24T22:01:39.918Z,0.97
2018-09-24T22:04:13.426Z,0.90
2018-09-24T22:06:46.750Z,0.90
2018-09-24T22:09:20.368Z,1.17
2018-09-24T22:11:53.709Z,0.73
2018-09-24T22:14:27.044Z,1.07
2018-09-24T22:17:01.797Z,0.90
2018-09-24T22:19:35.472Z,1.17
2018-09-24T22:22:08.786Z,1.00
2018-09-24T22:24:42.108Z,0.67
2018-09-24T22:27:15.569Z,0.80
2018-09-24T22:29:48.902Z,0.77
2018-09-24T22:32:22.425Z,0.80
2018-09-24T22:34:55.932Z,1.00
2018-09-24T22:37:29.176Z,0.80
2018-09-24T22:40:03.796Z,1.63
2018-09-24T22:42:37.346Z,0.93
2018-09-24T22:45:10.865Z,1.00
2018-09-24T22:47:44.189Z,0.80
2018-09-24T22:50:17.721Z,0.80
2018-09-24T22:52:51.080Z,0.87
2018-09-24T22:55:24.665Z,0.83
2018-09-24T22:57:58.091Z,0.90
2018-09-24T23:00:31.486Z,0.90
2018-09-24T23:03:04.869Z,0.80
2018-09-24T23:05:38.373Z,0.77
2018-09-24T23:08:11.932Z,1.17
2018-09-24T23:10:45.315Z,0.97
2018-09-24T23:13:18.798Z,0.83
2018-09-24T23:15:52.089Z,1.00
2018-09-24T23:18:25.424Z,1.10
2018-09-24T23:20:59.022Z,0.70
2018-09-24T23:23:32.332Z,0.80
2018-09-24T23:26:05.673Z,1.20
2018-09-24T23:28:39.265Z,0.90
2018-09-24T23:31:12.573Z,1.07
2018-09-24T23:33:46.085Z,1.13
2018-09-24T23:36:19.436Z,0.90
2018-09-24T23:38:52.842Z,1.03
2018-09-24T23:41:26.365Z,0.97
2018-09-24T23:43:59.858Z,1.00
2018-09-24T23:46:33.392Z,0.70
2018-09-24T23:49:06.866Z,0.90
2018-09-24T23:51:40.362Z,0.70
2018-09-24T23:54:13.715Z,1.20
2018-09-24T23:56:47.260Z,0.87
2018-09-24T23:59:20.853Z,0.93
